sensor_id;sensor_type;location;lat;lon;timestamp;pressure;altitude;pressure_sealevel;temperature;humidity
75549;BME280;64133;56.002;37.208;2023-05-28T00:00:47;99047.34;;;9.69;58.74
75549;BME280;64133;56.002;37.208;2023-05-28T00:05:52;99052.53;;;9.59;59.19
75549;BME280;64133;56.002;37.208;2023-05-28T00:10:57;99062.50;;;9.50;59.56
75549;BME280;64133;56.002;37.208;2023-05-28T00:16:04;99050.95;;;9.36;60.27
75549;BME280;64133;56.002;37.208;2023-05-28T00:21:08;99054.75;;;9.43;60.31
75549;BME280;64133;56.002;37.208;2023-05-28T00:26:13;99047.52;;;9.29;60.64
75549;BME280;64133;56.002;37.208;2023-05-28T00:31:18;99046.13;;;9.20;60.99
75549;BME280;64133;56.002;37.208;2023-05-28T00:36:23;99045.56;;;9.05;61.33
75549;BME280;64133;56.002;37.208;2023-05-28T00:41:28;99037.56;;;9.01;61.61
75549;BME280;64133;56.002;37.208;2023-05-28T00:46:32;99029.50;;;8.93;61.96
75549;BME280;64133;56.002;37.208;2023-05-28T00:51:37;99028.06;;;8.83;62.36
75549;BME280;64133;56.002;37.208;2023-05-28T00:56:42;99031.89;;;8.79;62.63
75549;BME280;64133;56.002;37.208;2023-05-28T01:01:47;99035.11;;;8.83;62.68
75549;BME280;64133;56.002;37.208;2023-05-28T01:06:52;99034.78;;;8.76;62.88
75549;BME280;64133;56.002;37.208;2023-05-28T01:11:57;99032.14;;;8.70;63.28
75549;BME280;64133;56.002;37.208;2023-05-28T01:17:01;99031.81;;;8.64;63.59
75549;BME280;64133;56.002;37.208;2023-05-28T01:22:06;99045.27;;;8.70;63.63
75549;BME280;64133;56.002;37.208;2023-05-28T01:27:11;99049.94;;;8.72;63.70
75549;BME280;64133;56.002;37.208;2023-05-28T01:32:15;99050.42;;;8.72;63.84
75549;BME280;64133;56.002;37.208;2023-05-28T01:37:20;99039.78;;;8.73;64.09
75549;BME280;64133;56.002;37.208;2023-05-28T01:42:25;99040.63;;;8.79;64.17
75549;BME280;64133;56.002;37.208;2023-05-28T01:47:30;99043.83;;;8.89;64.29
75549;BME280;64133;56.002;37.208;2023-05-28T01:52:34;99051.20;;;8.95;64.19
75549;BME280;64133;56.002;37.208;2023-05-28T01:57:39;99051.54;;;9.07;64.17
75549;BME280;64133;56.002;37.208;2023-05-28T02:02:44;99048.75;;;9.20;63.96
75549;BME280;64133;56.002;37.208;2023-05-28T02:07:49;99042.50;;;9.32;63.73
75549;BME280;64133;56.002;37.208;2023-05-28T02:12:53;99049.15;;;9.42;63.64
75549;BME280;64133;56.002;37.208;2023-05-28T02:17:58;99041.30;;;9.57;63.47
75549;BME280;64133;56.002;37.208;2023-05-28T02:23:03;99042.02;;;9.59;63.34
75549;BME280;64133;56.002;37.208;2023-05-28T02:28:07;99037.94;;;9.81;63.02
75549;BME280;64133;56.002;37.208;2023-05-28T02:33:12;99033.41;;;9.99;62.80
75549;BME280;64133;56.002;37.208;2023-05-28T02:38:16;99040.17;;;10.28;62.32
75549;BME280;64133;56.002;37.208;2023-05-28T02:43:21;99044.39;;;10.65;61.71
75549;BME280;64133;56.002;37.208;2023-05-28T02:48:26;99047.42;;;11.40;60.03
75549;BME280;64133;56.002;37.208;2023-05-28T02:53:30;99044.23;;;11.85;58.57
75549;BME280;64133;56.002;37.208;2023-05-28T02:58:35;99052.72;;;12.12;57.79
75549;BME280;64133;56.002;37.208;2023-05-28T03:03:40;99048.70;;;12.45;57.15
75549;BME280;64133;56.002;37.208;2023-05-28T03:08:44;99038.64;;;12.86;56.11
75549;BME280;64133;56.002;37.208;2023-05-28T03:13:49;99046.61;;;13.35;55.16
75549;BME280;64133;56.002;37.208;2023-05-28T03:18:54;99039.92;;;13.85;53.87
75549;BME280;64133;56.002;37.208;2023-05-28T03:23:58;99048.21;;;14.12;52.92
75549;BME280;64133;56.002;37.208;2023-05-28T03:29:03;99049.38;;;14.43;52.12
75549;BME280;64133;56.002;37.208;2023-05-28T03:34:08;99050.11;;;14.53;51.98
75549;BME280;64133;56.002;37.208;2023-05-28T03:39:12;99055.65;;;14.38;51.81
75549;BME280;64133;56.002;37.208;2023-05-28T03:44:17;99053.06;;;13.72;52.95
75549;BME280;64133;56.002;37.208;2023-05-28T03:49:21;99059.38;;;14.01;52.61
75549;BME280;64133;56.002;37.208;2023-05-28T03:54:26;99062.69;;;13.77;52.68
75549;BME280;64133;56.002;37.208;2023-05-28T03:59:31;99065.70;;;14.56;51.83
75549;BME280;64133;56.002;37.208;2023-05-28T04:04:35;99068.84;;;15.94;48.44
75549;BME280;64133;56.002;37.208;2023-05-28T04:09:40;99076.07;;;14.46;51.49
75549;BME280;64133;56.002;37.208;2023-05-28T04:14:45;99075.69;;;14.15;52.30
75549;BME280;64133;56.002;37.208;2023-05-28T04:19:49;99082.19;;;13.94;52.48
75549;BME280;64133;56.002;37.208;2023-05-28T04:24:55;99085.05;;;14.49;51.76
75549;BME280;64133;56.002;37.208;2023-05-28T04:29:59;99088.30;;;15.19;50.32
75549;BME280;64133;56.002;37.208;2023-05-28T04:35:05;99077.82;;;15.05;50.25
75549;BME280;64133;56.002;37.208;2023-05-28T04:40:10;99082.28;;;15.84;49.15
75549;BME280;64133;56.002;37.208;2023-05-28T04:45:15;99076.20;;;18.03;45.40
75549;BME280;64133;56.002;37.208;2023-05-28T04:50:19;99083.56;;;17.24;44.83
75549;BME280;64133;56.002;37.208;2023-05-28T04:55:24;99081.66;;;15.07;48.66
75549;BME280;64133;56.002;37.208;2023-05-28T05:00:29;99082.86;;;13.96;50.82
75549;BME280;64133;56.002;37.208;2023-05-28T05:05:33;99085.70;;;13.99;51.26
75549;BME280;64133;56.002;37.208;2023-05-28T05:10:38;99080.98;;;14.15;51.12
75549;BME280;64133;56.002;37.208;2023-05-28T05:15:42;99081.08;;;13.43;52.46
75549;BME280;64133;56.002;37.208;2023-05-28T05:20:47;99090.14;;;12.68;54.39
75549;BME280;64133;56.002;37.208;2023-05-28T05:25:52;99091.69;;;12.61;54.87
75549;BME280;64133;56.002;37.208;2023-05-28T05:30:56;99090.41;;;12.51;55.52
75549;BME280;64133;56.002;37.208;2023-05-28T05:36:01;99100.28;;;12.25;56.52
75549;BME280;64133;56.002;37.208;2023-05-28T05:41:06;99105.71;;;12.47;56.48
75549;BME280;64133;56.002;37.208;2023-05-28T05:46:10;99104.05;;;12.46;56.68
75549;BME280;64133;56.002;37.208;2023-05-28T05:51:15;99118.63;;;12.88;56.17
75549;BME280;64133;56.002;37.208;2023-05-28T05:56:20;99125.17;;;12.83;56.36
75549;BME280;64133;56.002;37.208;2023-05-28T06:01:24;99120.25;;;14.93;53.49
75549;BME280;64133;56.002;37.208;2023-05-28T06:06:29;99097.97;;;21.80;42.45
75549;BME280;64133;56.002;37.208;2023-05-28T06:11:34;99114.50;;;19.75;41.58
75549;BME280;64133;56.002;37.208;2023-05-28T06:16:38;99107.02;;;19.49;42.21
75549;BME280;64133;56.002;37.208;2023-05-28T06:21:43;99121.30;;;18.08;43.23
75549;BME280;64133;56.002;37.208;2023-05-28T06:26:47;99121.81;;;15.95;47.02
75549;BME280;64133;56.002;37.208;2023-05-28T06:31:52;99133.00;;;14.60;49.40
75549;BME280;64133;56.002;37.208;2023-05-28T06:36:57;99127.02;;;13.74;51.21
75549;BME280;64133;56.002;37.208;2023-05-28T06:42:01;99137.28;;;13.73;52.25
75549;BME280;64133;56.002;37.208;2023-05-28T06:47:06;99139.70;;;14.06;51.89
75549;BME280;64133;56.002;37.208;2023-05-28T06:52:11;99139.81;;;14.44;51.82
75549;BME280;64133;56.002;37.208;2023-05-28T06:57:16;99131.72;;;15.02;51.30
75549;BME280;64133;56.002;37.208;2023-05-28T07:02:20;99122.28;;;16.23;49.87
75549;BME280;64133;56.002;37.208;2023-05-28T07:07:25;99121.94;;;17.65;47.92
75549;BME280;64133;56.002;37.208;2023-05-28T07:12:30;99105.04;;;26.21;34.91
75549;BME280;64133;56.002;37.208;2023-05-28T07:17:34;99103.23;;;22.57;38.09
75549;BME280;64133;56.002;37.208;2023-05-28T07:22:39;99104.14;;;26.74;34.34
75549;BME280;64133;56.002;37.208;2023-05-28T07:27:44;99113.75;;;30.64;26.82
75549;BME280;64133;56.002;37.208;2023-05-28T07:32:48;99118.47;;;28.85;28.74
75549;BME280;64133;56.002;37.208;2023-05-28T07:37:54;99113.71;;;31.01;25.62
75549;BME280;64133;56.002;37.208;2023-05-28T07:42:58;99115.98;;;28.11;27.39
75549;BME280;64133;56.002;37.208;2023-05-28T07:48:03;99122.02;;;40.23;17.41
75549;BME280;64133;56.002;37.208;2023-05-28T07:53:08;99132.26;;;32.46;21.23
75549;BME280;64133;56.002;37.208;2023-05-28T07:58:12;99125.99;;;33.44;20.54
75549;BME280;64133;56.002;37.208;2023-05-28T08:03:17;99137.19;;;28.86;23.25
75549;BME280;64133;56.002;37.208;2023-05-28T08:08:22;99140.86;;;24.46;27.45
75549;BME280;64133;56.002;37.208;2023-05-28T08:13:26;99139.80;;;31.58;21.93
75549;BME280;64133;56.002;37.208;2023-05-28T08:18:31;99164.53;;;24.12;28.05
75549;BME280;64133;56.002;37.208;2023-05-28T08:23:36;99175.60;;;19.42;34.87
75549;BME280;64133;56.002;37.208;2023-05-28T08:28:40;99177.64;;;17.82;37.88
75549;BME280;64133;56.002;37.208;2023-05-28T08:33:45;99181.91;;;16.53;40.59
75549;BME280;64133;56.002;37.208;2023-05-28T08:38:50;99171.98;;;16.06;42.58
75549;BME280;64133;56.002;37.208;2023-05-28T08:43:54;99183.31;;;15.62;44.23
75549;BME280;64133;56.002;37.208;2023-05-28T08:48:59;99179.23;;;15.25;45.42
75549;BME280;64133;56.002;37.208;2023-05-28T08:54:04;99185.13;;;15.07;46.42
75549;BME280;64133;56.002;37.208;2023-05-28T08:59:08;99189.88;;;15.33;46.63
75549;BME280;64133;56.002;37.208;2023-05-28T09:04:13;99184.87;;;15.26;47.14
75549;BME280;64133;56.002;37.208;2023-05-28T09:09:18;99184.67;;;15.16;47.92
75549;BME280;64133;56.002;37.208;2023-05-28T09:14:22;99176.73;;;15.28;48.19
75549;BME280;64133;56.002;37.208;2023-05-28T09:19:27;99175.12;;;16.43;47.07
75549;BME280;64133;56.002;37.208;2023-05-28T09:24:32;99161.08;;;19.00;41.86
75549;BME280;64133;56.002;37.208;2023-05-28T09:29:36;99155.28;;;18.29;42.87
75549;BME280;64133;56.002;37.208;2023-05-28T09:34:41;99146.40;;;20.09;40.25
75549;BME280;64133;56.002;37.208;2023-05-28T09:39:47;99153.50;;;21.07;37.92
75549;BME280;64133;56.002;37.208;2023-05-28T09:44:51;99147.55;;;20.00;38.71
75549;BME280;64133;56.002;37.208;2023-05-28T09:49:56;99147.80;;;20.05;38.44
75549;BME280;64133;56.002;37.208;2023-05-28T09:55:00;99154.95;;;20.75;37.36
75549;BME280;64133;56.002;37.208;2023-05-28T10:00:07;99152.48;;;20.35;37.35
75549;BME280;64133;56.002;37.208;2023-05-28T10:05:16;99156.80;;;20.75;36.32
75549;BME280;64133;56.002;37.208;2023-05-28T10:10:20;99147.30;;;19.73;37.60
75549;BME280;64133;56.002;37.208;2023-05-28T10:15:25;99137.42;;;19.84;38.06
75549;BME280;64133;56.002;37.208;2023-05-28T10:20:30;99138.00;;;20.12;37.46
75549;BME280;64133;56.002;37.208;2023-05-28T10:25:34;99143.80;;;20.33;37.35
75549;BME280;64133;56.002;37.208;2023-05-28T10:30:39;99136.78;;;20.64;37.14
75549;BME280;64133;56.002;37.208;2023-05-28T10:35:52;99129.07;;;20.89;36.64
75549;BME280;64133;56.002;37.208;2023-05-28T10:41:03;99108.77;;;20.84;36.60
75549;BME280;64133;56.002;37.208;2023-05-28T10:46:10;99106.50;;;21.29;35.41
75549;BME280;64133;56.002;37.208;2023-05-28T10:51:15;99106.05;;;21.43;34.95
75549;BME280;64133;56.002;37.208;2023-05-28T10:56:19;99104.94;;;21.00;35.29
75549;BME280;64133;56.002;37.208;2023-05-28T11:01:24;99107.56;;;21.78;34.79
75549;BME280;64133;56.002;37.208;2023-05-28T11:06:29;99102.64;;;21.45;34.33
75549;BME280;64133;56.002;37.208;2023-05-28T11:11:34;99101.37;;;20.02;36.11
75549;BME280;64133;56.002;37.208;2023-05-28T11:16:39;99115.27;;;20.12;36.27
75549;BME280;64133;56.002;37.208;2023-05-28T11:21:53;99121.30;;;20.21;37.14
75549;BME280;64133;56.002;37.208;2023-05-28T11:26:57;99091.91;;;18.95;36.77
75549;BME280;64133;56.002;37.208;2023-05-28T11:32:02;99115.55;;;19.13;36.29
75549;BME280;64133;56.002;37.208;2023-05-28T11:37:06;99106.75;;;20.93;34.77
75549;BME280;64133;56.002;37.208;2023-05-28T11:42:11;99117.72;;;21.59;33.30
75549;BME280;64133;56.002;37.208;2023-05-28T11:47:16;99153.07;;;19.66;35.09
75549;BME280;64133;56.002;37.208;2023-05-28T11:52:21;99173.42;;;17.26;39.21
75549;BME280;64133;56.002;37.208;2023-05-28T11:57:26;99154.67;;;15.82;42.53
75549;BME280;64133;56.002;37.208;2023-05-28T12:02:30;99163.39;;;15.58;44.02
75549;BME280;64133;56.002;37.208;2023-05-28T12:07:35;99177.89;;;15.21;44.13
75549;BME280;64133;56.002;37.208;2023-05-28T12:12:41;99162.66;;;15.86;44.51
75549;BME280;64133;56.002;37.208;2023-05-28T12:17:45;99163.11;;;16.75;44.04
75549;BME280;64133;56.002;37.208;2023-05-28T12:23:01;99150.14;;;18.24;40.50
75549;BME280;64133;56.002;37.208;2023-05-28T12:28:06;99152.12;;;18.45;38.37
75549;BME280;64133;56.002;37.208;2023-05-28T12:33:11;99176.94;;;18.12;38.61
75549;BME280;64133;56.002;37.208;2023-05-28T12:38:15;99196.08;;;17.57;38.86
75549;BME280;64133;56.002;37.208;2023-05-28T12:43:20;99198.10;;;17.16;41.04
75549;BME280;64133;56.002;37.208;2023-05-28T12:48:25;99208.63;;;15.78;45.50
75549;BME280;64133;56.002;37.208;2023-05-28T12:53:29;99167.12;;;14.85;48.73
75549;BME280;64133;56.002;37.208;2023-05-28T12:58:34;99138.31;;;14.94;51.29
75549;BME280;64133;56.002;37.208;2023-05-28T13:03:40;99139.58;;;15.91;51.08
75549;BME280;64133;56.002;37.208;2023-05-28T13:08:45;99132.70;;;16.53;49.70
75549;BME280;64133;56.002;37.208;2023-05-28T13:13:49;99126.05;;;16.57;48.82
75549;BME280;64133;56.002;37.208;2023-05-28T13:18:55;99119.57;;;16.60;49.36
75549;BME280;64133;56.002;37.208;2023-05-28T13:24:03;99119.59;;;16.48;49.38
75549;BME280;64133;56.002;37.208;2023-05-28T13:29:07;99120.22;;;16.62;50.24
75549;BME280;64133;56.002;37.208;2023-05-28T13:34:12;99122.03;;;16.70;49.01
75549;BME280;64133;56.002;37.208;2023-05-28T13:39:16;99124.19;;;16.82;49.45
75549;BME280;64133;56.002;37.208;2023-05-28T13:44:21;99117.05;;;16.79;48.56
75549;BME280;64133;56.002;37.208;2023-05-28T13:49:26;99114.34;;;16.91;47.86
75549;BME280;64133;56.002;37.208;2023-05-28T13:54:30;99102.89;;;16.87;47.58
75549;BME280;64133;56.002;37.208;2023-05-28T13:59:35;99102.03;;;16.94;48.19
75549;BME280;64133;56.002;37.208;2023-05-28T14:04:40;99102.72;;;17.19;47.68
75549;BME280;64133;56.002;37.208;2023-05-28T14:09:44;99105.12;;;17.06;46.20
75549;BME280;64133;56.002;37.208;2023-05-28T14:14:49;99107.98;;;17.31;46.19
75549;BME280;64133;56.002;37.208;2023-05-28T14:19:54;99108.70;;;17.25;45.03
75549;BME280;64133;56.002;37.208;2023-05-28T14:24:58;99109.55;;;17.22;43.22
75549;BME280;64133;56.002;37.208;2023-05-28T14:30:04;99105.30;;;17.04;41.66
75549;BME280;64133;56.002;37.208;2023-05-28T14:35:09;99103.50;;;16.97;42.02
75549;BME280;64133;56.002;37.208;2023-05-28T14:40:14;99103.16;;;17.00;41.65
75549;BME280;64133;56.002;37.208;2023-05-28T14:45:20;99097.13;;;17.06;41.91
75549;BME280;64133;56.002;37.208;2023-05-28T14:50:24;99098.45;;;17.10;42.16
75549;BME280;64133;56.002;37.208;2023-05-28T14:55:29;99108.77;;;17.09;41.77
75549;BME280;64133;56.002;37.208;2023-05-28T15:00:34;99114.05;;;17.21;41.81
75549;BME280;64133;56.002;37.208;2023-05-28T15:05:38;99116.97;;;17.34;40.54
75549;BME280;64133;56.002;37.208;2023-05-28T15:10:43;99124.93;;;17.39;40.06
75549;BME280;64133;56.002;37.208;2023-05-28T15:15:48;99131.37;;;17.17;39.92
75549;BME280;64133;56.002;37.208;2023-05-28T15:20:53;99129.34;;;16.80;39.88
75549;BME280;64133;56.002;37.208;2023-05-28T15:25:58;99125.84;;;16.67;39.67
75549;BME280;64133;56.002;37.208;2023-05-28T15:36:24;99129.08;;;16.50;39.86
75549;BME280;64133;56.002;37.208;2023-05-28T15:41:28;99142.06;;;15.96;40.82
75549;BME280;64133;56.002;37.208;2023-05-28T15:46:34;99131.75;;;15.69;41.14
75549;BME280;64133;56.002;37.208;2023-05-28T15:51:39;99140.64;;;15.47;41.64
75549;BME280;64133;56.002;37.208;2023-05-28T15:56:45;99138.53;;;15.63;41.83
75549;BME280;64133;56.002;37.208;2023-05-28T16:01:52;99148.69;;;15.68;41.87
75549;BME280;64133;56.002;37.208;2023-05-28T16:06:57;99141.82;;;15.57;42.04
75549;BME280;64133;56.002;37.208;2023-05-28T16:12:03;99142.81;;;15.52;42.27
75549;BME280;64133;56.002;37.208;2023-05-28T16:17:09;99140.45;;;15.41;42.62
75549;BME280;64133;56.002;37.208;2023-05-28T16:22:15;99140.27;;;15.30;42.95
75549;BME280;64133;56.002;37.208;2023-05-28T16:27:19;99136.75;;;15.21;43.45
75549;BME280;64133;56.002;37.208;2023-05-28T16:32:26;99141.69;;;15.08;43.57
75549;BME280;64133;56.002;37.208;2023-05-28T16:37:32;99147.48;;;15.07;43.96
75549;BME280;64133;56.002;37.208;2023-05-28T16:42:37;99157.56;;;15.00;44.51
75549;BME280;64133;56.002;37.208;2023-05-28T16:47:43;99151.58;;;14.94;45.09
75549;BME280;64133;56.002;37.208;2023-05-28T16:52:47;99150.52;;;14.82;45.06
75549;BME280;64133;56.002;37.208;2023-05-28T16:57:52;99155.44;;;14.73;45.49
75549;BME280;64133;56.002;37.208;2023-05-28T17:02:59;99164.34;;;14.64;45.81
75549;BME280;64133;56.002;37.208;2023-05-28T17:08:06;99161.11;;;14.52;46.16
75549;BME280;64133;56.002;37.208;2023-05-28T17:13:11;99163.81;;;14.39;46.72
75549;BME280;64133;56.002;37.208;2023-05-28T17:18:16;99172.69;;;14.29;47.23
75549;BME280;64133;56.002;37.208;2023-05-28T17:23:21;99177.42;;;14.22;47.54
75549;BME280;64133;56.002;37.208;2023-05-28T17:28:27;99186.05;;;14.06;48.04
75549;BME280;64133;56.002;37.208;2023-05-28T17:33:33;99198.27;;;13.81;48.87
75549;BME280;64133;56.002;37.208;2023-05-28T17:38:38;99191.92;;;13.60;49.55
75549;BME280;64133;56.002;37.208;2023-05-28T17:43:42;99192.38;;;13.42;50.29
75549;BME280;64133;56.002;37.208;2023-05-28T17:48:49;99191.48;;;13.23;51.01
75549;BME280;64133;56.002;37.208;2023-05-28T17:53:54;99202.58;;;13.13;51.45
75549;BME280;64133;56.002;37.208;2023-05-28T17:58:59;99208.96;;;12.97;52.05
75549;BME280;64133;56.002;37.208;2023-05-28T18:04:04;99204.42;;;12.79;52.79
75549;BME280;64133;56.002;37.208;2023-05-28T18:09:09;99199.61;;;12.65;53.32
75549;BME280;64133;56.002;37.208;2023-05-28T18:14:14;99217.36;;;12.49;53.86
75549;BME280;64133;56.002;37.208;2023-05-28T18:19:18;99210.09;;;12.38;54.34
75549;BME280;64133;56.002;37.208;2023-05-28T18:24:23;99204.61;;;12.25;55.09
75549;BME280;64133;56.002;37.208;2023-05-28T18:29:28;99108.30;;;11.52;55.54
75549;BME280;64133;56.002;37.208;2023-05-28T18:34:33;99212.75;;;11.99;55.83
75549;BME280;64133;56.002;37.208;2023-05-28T18:39:38;99222.48;;;11.89;56.36
75549;BME280;64133;56.002;37.208;2023-05-28T18:44:43;99221.47;;;11.80;56.86
75549;BME280;64133;56.002;37.208;2023-05-28T18:49:48;99221.80;;;11.71;57.00
75549;BME280;64133;56.002;37.208;2023-05-28T18:54:52;99216.69;;;11.54;57.56
75549;BME280;64133;56.002;37.208;2023-05-28T18:59:57;99218.45;;;11.44;58.31
75549;BME280;64133;56.002;37.208;2023-05-28T19:05:02;99209.34;;;11.33;58.90
75549;BME280;64133;56.002;37.208;2023-05-28T19:10:08;99214.22;;;11.22;59.36
75549;BME280;64133;56.002;37.208;2023-05-28T19:15:13;99221.61;;;11.13;59.81
75549;BME280;64133;56.002;37.208;2023-05-28T19:20:18;99215.87;;;10.98;60.14
75549;BME280;64133;56.002;37.208;2023-05-28T19:25:22;99224.42;;;10.91;60.36
75549;BME280;64133;56.002;37.208;2023-05-28T19:30:27;99226.05;;;10.82;60.57
75549;BME280;64133;56.002;37.208;2023-05-28T19:35:32;99231.27;;;10.72;60.87
75549;BME280;64133;56.002;37.208;2023-05-28T19:40:36;99234.20;;;10.64;61.13
75549;BME280;64133;56.002;37.208;2023-05-28T19:45:41;99233.38;;;10.57;61.37
75549;BME280;64133;56.002;37.208;2023-05-28T19:50:46;99242.14;;;10.58;61.44
75549;BME280;64133;56.002;37.208;2023-05-28T19:55:50;99238.44;;;10.55;61.61
75549;BME280;64133;56.002;37.208;2023-05-28T20:00:55;99244.41;;;10.57;61.88
75549;BME280;64133;56.002;37.208;2023-05-28T20:06:00;99239.17;;;10.51;62.08
75549;BME280;64133;56.002;37.208;2023-05-28T20:11:05;99232.30;;;10.39;62.46
75549;BME280;64133;56.002;37.208;2023-05-28T20:16:09;99238.77;;;10.35;62.56
75549;BME280;64133;56.002;37.208;2023-05-28T20:21:14;99237.39;;;10.25;62.84
75549;BME280;64133;56.002;37.208;2023-05-28T20:26:19;99244.56;;;10.18;63.05
75549;BME280;64133;56.002;37.208;2023-05-28T20:31:24;99243.98;;;10.14;63.17
75549;BME280;64133;56.002;37.208;2023-05-28T20:36:28;99250.83;;;10.11;63.23
75549;BME280;64133;56.002;37.208;2023-05-28T20:41:33;99248.33;;;10.04;63.35
75549;BME280;64133;56.002;37.208;2023-05-28T20:46:38;99245.35;;;10.03;63.42
75549;BME280;64133;56.002;37.208;2023-05-28T20:51:42;99242.38;;;10.02;63.63
75549;BME280;64133;56.002;37.208;2023-05-28T20:56:47;99245.67;;;10.10;63.64
75549;BME280;64133;56.002;37.208;2023-05-28T21:01:52;99245.80;;;10.08;63.72
75549;BME280;64133;56.002;37.208;2023-05-28T21:06:57;99245.94;;;10.06;63.88
75549;BME280;64133;56.002;37.208;2023-05-28T21:12:01;99243.55;;;10.03;63.95
75549;BME280;64133;56.002;37.208;2023-05-28T21:17:06;99248.33;;;10.04;64.12
75549;BME280;64133;56.002;37.208;2023-05-28T21:22:11;99249.44;;;10.01;64.29
75549;BME280;64133;56.002;37.208;2023-05-28T21:27:15;99246.83;;;9.90;64.71
75549;BME280;64133;56.002;37.208;2023-05-28T21:32:20;99256.19;;;9.77;65.08
75549;BME280;64133;56.002;37.208;2023-05-28T21:37:25;99262.44;;;9.60;65.50
75549;BME280;64133;56.002;37.208;2023-05-28T21:42:29;99258.52;;;9.54;66.02
75549;BME280;64133;56.002;37.208;2023-05-28T21:47:34;99261.84;;;9.56;66.13
75549;BME280;64133;56.002;37.208;2023-05-28T21:52:39;99260.64;;;9.49;66.54
75549;BME280;64133;56.002;37.208;2023-05-28T21:57:43;99258.62;;;9.47;66.82
75549;BME280;64133;56.002;37.208;2023-05-28T22:02:48;99253.23;;;9.48;66.73
75549;BME280;64133;56.002;37.208;2023-05-28T22:07:53;99261.63;;;9.42;66.90
75549;BME280;64133;56.002;37.208;2023-05-28T22:12:57;99260.44;;;9.29;67.20
75549;BME280;64133;56.002;37.208;2023-05-28T22:18:02;99264.73;;;9.25;67.51
75549;BME280;64133;56.002;37.208;2023-05-28T22:23:07;99266.19;;;9.23;67.48
75549;BME280;64133;56.002;37.208;2023-05-28T22:28:11;99267.11;;;9.22;67.43
75549;BME280;64133;56.002;37.208;2023-05-28T22:33:16;99274.66;;;9.10;67.70
75549;BME280;64133;56.002;37.208;2023-05-28T22:38:21;99270.34;;;9.03;67.93
75549;BME280;64133;56.002;37.208;2023-05-28T22:43:25;99273.45;;;9.03;68.00
75549;BME280;64133;56.002;37.208;2023-05-28T22:48:30;99274.53;;;9.06;67.90
75549;BME280;64133;56.002;37.208;2023-05-28T22:53:35;99268.30;;;8.96;67.97
75549;BME280;64133;56.002;37.208;2023-05-28T22:58:40;99279.41;;;8.99;67.91
75549;BME280;64133;56.002;37.208;2023-05-28T23:03:45;99280.50;;;8.97;68.10
75549;BME280;64133;56.002;37.208;2023-05-28T23:08:50;99293.86;;;8.94;68.09
75549;BME280;64133;56.002;37.208;2023-05-28T23:13:54;99295.53;;;8.95;68.12
75549;BME280;64133;56.002;37.208;2023-05-28T23:18:59;99306.87;;;8.90;68.16
75549;BME280;64133;56.002;37.208;2023-05-28T23:24:04;99307.22;;;8.91;68.33
75549;BME280;64133;56.002;37.208;2023-05-28T23:29:08;99303.16;;;8.92;68.28
75549;BME280;64133;56.002;37.208;2023-05-28T23:34:13;99313.79;;;8.91;68.30
75549;BME280;64133;56.002;37.208;2023-05-28T23:39:18;99314.40;;;8.89;68.42
75549;BME280;64133;56.002;37.208;2023-05-28T23:44:22;99316.02;;;8.78;68.48
75549;BME280;64133;56.002;37.208;2023-05-28T23:49:27;99311.03;;;8.81;68.62
75549;BME280;64133;56.002;37.208;2023-05-28T23:54:32;99310.42;;;8.77;68.61
75549;BME280;64133;56.002;37.208;2023-05-28T23:59:36;99305.50;;;8.67;68.94
